sensor_id;sensor_type;location;lat;lon;timestamp;P1;durP1;ratioP1;P2;durP2;ratioP2
8978;SDS011;4524;51.364;5.448;2022-10-16T00:02:22;4.43;;;2.70;;
8978;SDS011;4524;51.364;5.448;2022-10-16T00:04:50;4.57;;;2.33;;
8978;SDS011;4524;51.364;5.448;2022-10-16T00:07:19;4.70;;;2.77;;
8978;SDS011;4524;51.364;5.448;2022-10-16T00:09:47;2.80;;;2.43;;
8978;SDS011;4524;51.364;5.448;2022-10-16T00:12:15;3.20;;;2.47;;
8978;SDS011;4524;51.364;5.448;2022-10-16T00:14:43;4.40;;;2.40;;
8978;SDS011;4524;51.364;5.448;2022-10-16T00:17:11;5.97;;;2.57;;
8978;SDS011;4524;51.364;5.448;2022-10-16T00:19:39;5.70;;;2.60;;
8978;SDS011;4524;51.364;5.448;2022-10-16T00:22:07;7.07;;;2.27;;
8978;SDS011;4524;51.364;5.448;2022-10-16T00:24:37;6.23;;;2.20;;
8978;SDS011;4524;51.364;5.448;2022-10-16T00:27:05;5.53;;;2.43;;
8978;SDS011;4524;51.364;5.448;2022-10-16T00:29:33;4.77;;;2.37;;
8978;SDS011;4524;51.364;5.448;2022-10-16T00:32:01;3.03;;;2.10;;
8978;SDS011;4524;51.364;5.448;2022-10-16T00:34:29;2.70;;;2.33;;
8978;SDS011;4524;51.364;5.448;2022-10-16T00:36:57;4.07;;;2.10;;
8978;SDS011;4524;51.364;5.448;2022-10-16T00:39:24;3.20;;;2.10;;
8978;SDS011;4524;51.364;5.448;2022-10-16T00:41:54;5.03;;;2.43;;
8978;SDS011;4524;51.364;5.448;2022-10-16T00:44:44;4.97;;;2.23;;
8978;SDS011;4524;51.364;5.448;2022-10-16T00:47:17;4.37;;;2.47;;
8978;SDS011;4524;51.364;5.448;2022-10-16T00:49:48;2.43;;;2.07;;
8978;SDS011;4524;51.364;5.448;2022-10-16T00:52:18;3.33;;;2.30;;
8978;SDS011;4524;51.364;5.448;2022-10-16T00:54:46;4.17;;;2.00;;
8978;SDS011;4524;51.364;5.448;2022-10-16T00:57:17;3.47;;;2.03;;
8978;SDS011;4524;51.364;5.448;2022-10-16T00:59:46;3.10;;;2.10;;
8978;SDS011;4524;51.364;5.448;2022-10-16T01:02:14;5.53;;;2.13;;
8978;SDS011;4524;51.364;5.448;2022-10-16T01:04:44;2.73;;;2.00;;
8978;SDS011;4524;51.364;5.448;2022-10-16T01:07:17;3.10;;;2.33;;
8978;SDS011;4524;51.364;5.448;2022-10-16T01:09:57;5.80;;;2.10;;
8978;SDS011;4524;51.364;5.448;2022-10-16T01:12:37;3.43;;;2.07;;
8978;SDS011;4524;51.364;5.448;2022-10-16T01:15:14;3.83;;;2.03;;
8978;SDS011;4524;51.364;5.448;2022-10-16T01:17:48;3.27;;;1.80;;
8978;SDS011;4524;51.364;5.448;2022-10-16T01:20:21;3.10;;;1.80;;
8978;SDS011;4524;51.364;5.448;2022-10-16T01:22:58;2.87;;;1.97;;
8978;SDS011;4524;51.364;5.448;2022-10-16T01:25:42;2.50;;;1.80;;
8978;SDS011;4524;51.364;5.448;2022-10-16T01:28:30;3.97;;;1.80;;
8978;SDS011;4524;51.364;5.448;2022-10-16T01:31:03;2.83;;;1.83;;
8978;SDS011;4524;51.364;5.448;2022-10-16T01:33:33;2.07;;;1.70;;
8978;SDS011;4524;51.364;5.448;2022-10-16T01:36:06;1.87;;;1.70;;
8978;SDS011;4524;51.364;5.448;2022-10-16T01:38:39;2.43;;;1.70;;
8978;SDS011;4524;51.364;5.448;2022-10-16T01:41:09;2.13;;;1.90;;
8978;SDS011;4524;51.364;5.448;2022-10-16T01:43:43;4.73;;;1.70;;
8978;SDS011;4524;51.364;5.448;2022-10-16T01:46:14;3.87;;;1.67;;
8978;SDS011;4524;51.364;5.448;2022-10-16T01:48:46;3.00;;;1.57;;
8978;SDS011;4524;51.364;5.448;2022-10-16T01:51:15;3.10;;;1.70;;
8978;SDS011;4524;51.364;5.448;2022-10-16T01:53:46;2.37;;;1.60;;
8978;SDS011;4524;51.364;5.448;2022-10-16T01:56:17;1.90;;;1.20;;
8978;SDS011;4524;51.364;5.448;2022-10-16T01:58:49;4.00;;;1.47;;
8978;SDS011;4524;51.364;5.448;2022-10-16T02:01:20;3.13;;;1.70;;
8978;SDS011;4524;51.364;5.448;2022-10-16T02:03:51;1.40;;;1.27;;
8978;SDS011;4524;51.364;5.448;2022-10-16T02:06:21;2.60;;;1.30;;
8978;SDS011;4524;51.364;5.448;2022-10-16T02:08:49;2.77;;;1.60;;
8978;SDS011;4524;51.364;5.448;2022-10-16T02:11:17;2.10;;;1.47;;
8978;SDS011;4524;51.364;5.448;2022-10-16T02:13:46;3.00;;;1.40;;
8978;SDS011;4524;51.364;5.448;2022-10-16T02:16:20;3.10;;;1.40;;
8978;SDS011;4524;51.364;5.448;2022-10-16T02:18:48;1.60;;;1.47;;
8978;SDS011;4524;51.364;5.448;2022-10-16T02:21:17;3.30;;;1.63;;
8978;SDS011;4524;51.364;5.448;2022-10-16T02:23:50;1.93;;;1.50;;
8978;SDS011;4524;51.364;5.448;2022-10-16T02:26:23;1.73;;;1.40;;
8978;SDS011;4524;51.364;5.448;2022-10-16T02:28:58;1.50;;;1.40;;
8978;SDS011;4524;51.364;5.448;2022-10-16T02:31:31;1.90;;;1.57;;
8978;SDS011;4524;51.364;5.448;2022-10-16T02:34:03;1.80;;;1.57;;
8978;SDS011;4524;51.364;5.448;2022-10-16T02:36:33;2.30;;;1.40;;
8978;SDS011;4524;51.364;5.448;2022-10-16T02:39:03;3.33;;;1.47;;
8978;SDS011;4524;51.364;5.448;2022-10-16T02:41:32;3.40;;;1.90;;
8978;SDS011;4524;51.364;5.448;2022-10-16T02:44:01;3.03;;;1.57;;
8978;SDS011;4524;51.364;5.448;2022-10-16T02:46:29;2.63;;;1.60;;
8978;SDS011;4524;51.364;5.448;2022-10-16T02:48:57;2.17;;;1.60;;
8978;SDS011;4524;51.364;5.448;2022-10-16T02:51:25;3.30;;;1.50;;
8978;SDS011;4524;51.364;5.448;2022-10-16T02:53:53;2.80;;;1.67;;
8978;SDS011;4524;51.364;5.448;2022-10-16T02:56:20;3.27;;;1.87;;
8978;SDS011;4524;51.364;5.448;2022-10-16T02:58:48;3.33;;;2.03;;
8978;SDS011;4524;51.364;5.448;2022-10-16T03:01:18;4.13;;;1.50;;
8978;SDS011;4524;51.364;5.448;2022-10-16T03:03:46;2.20;;;1.40;;
8978;SDS011;4524;51.364;5.448;2022-10-16T03:06:13;2.90;;;1.60;;
8978;SDS011;4524;51.364;5.448;2022-10-16T03:08:41;2.67;;;1.43;;
8978;SDS011;4524;51.364;5.448;2022-10-16T03:11:09;3.23;;;1.63;;
8978;SDS011;4524;51.364;5.448;2022-10-16T03:13:37;1.53;;;1.43;;
8978;SDS011;4524;51.364;5.448;2022-10-16T03:16:05;3.10;;;1.40;;
8978;SDS011;4524;51.364;5.448;2022-10-16T03:18:34;2.50;;;1.43;;
8978;SDS011;4524;51.364;5.448;2022-10-16T03:21:02;3.13;;;1.47;;
8978;SDS011;4524;51.364;5.448;2022-10-16T03:23:30;2.77;;;1.70;;
8978;SDS011;4524;51.364;5.448;2022-10-16T03:25:58;1.60;;;1.50;;
8978;SDS011;4524;51.364;5.448;2022-10-16T03:28:26;2.40;;;1.40;;
8978;SDS011;4524;51.364;5.448;2022-10-16T03:30:54;2.60;;;1.60;;
8978;SDS011;4524;51.364;5.448;2022-10-16T03:33:22;3.00;;;1.40;;
8978;SDS011;4524;51.364;5.448;2022-10-16T03:35:54;1.57;;;1.47;;
8978;SDS011;4524;51.364;5.448;2022-10-16T03:38:22;4.17;;;1.90;;
8978;SDS011;4524;51.364;5.448;2022-10-16T03:40:49;3.50;;;1.70;;
8978;SDS011;4524;51.364;5.448;2022-10-16T03:43:17;3.77;;;1.57;;
8978;SDS011;4524;51.364;5.448;2022-10-16T03:45:45;2.53;;;1.70;;
8978;SDS011;4524;51.364;5.448;2022-10-16T03:48:13;2.67;;;1.80;;
8978;SDS011;4524;51.364;5.448;2022-10-16T03:50:41;2.83;;;1.80;;
8978;SDS011;4524;51.364;5.448;2022-10-16T03:53:10;2.37;;;1.50;;
8978;SDS011;4524;51.364;5.448;2022-10-16T03:55:38;2.77;;;1.43;;
8978;SDS011;4524;51.364;5.448;2022-10-16T03:58:08;2.80;;;1.73;;
8978;SDS011;4524;51.364;5.448;2022-10-16T04:00:39;4.13;;;1.90;;
8978;SDS011;4524;51.364;5.448;2022-10-16T04:03:08;3.73;;;1.70;;
8978;SDS011;4524;51.364;5.448;2022-10-16T04:05:36;2.93;;;1.90;;
8978;SDS011;4524;51.364;5.448;2022-10-16T04:08:04;4.43;;;1.93;;
8978;SDS011;4524;51.364;5.448;2022-10-16T04:10:33;2.27;;;1.60;;
8978;SDS011;4524;51.364;5.448;2022-10-16T04:13:01;2.00;;;1.70;;
8978;SDS011;4524;51.364;5.448;2022-10-16T04:15:29;2.40;;;1.60;;
8978;SDS011;4524;51.364;5.448;2022-10-16T04:17:56;5.07;;;2.17;;
8978;SDS011;4524;51.364;5.448;2022-10-16T04:20:24;2.33;;;1.60;;
8978;SDS011;4524;51.364;5.448;2022-10-16T04:22:52;3.27;;;1.67;;
8978;SDS011;4524;51.364;5.448;2022-10-16T04:25:20;3.53;;;1.80;;
8978;SDS011;4524;51.364;5.448;2022-10-16T04:27:49;2.77;;;1.70;;
8978;SDS011;4524;51.364;5.448;2022-10-16T04:30:19;2.27;;;1.70;;
8978;SDS011;4524;51.364;5.448;2022-10-16T04:32:47;5.30;;;1.90;;
8978;SDS011;4524;51.364;5.448;2022-10-16T04:35:16;4.10;;;1.80;;
8978;SDS011;4524;51.364;5.448;2022-10-16T04:37:44;2.13;;;1.63;;
8978;SDS011;4524;51.364;5.448;2022-10-16T04:40:12;3.50;;;1.67;;
8978;SDS011;4524;51.364;5.448;2022-10-16T04:42:41;3.73;;;1.70;;
8978;SDS011;4524;51.364;5.448;2022-10-16T04:45:10;1.83;;;1.40;;
8978;SDS011;4524;51.364;5.448;2022-10-16T04:47:42;2.90;;;1.63;;
8978;SDS011;4524;51.364;5.448;2022-10-16T04:50:10;4.13;;;1.70;;
8978;SDS011;4524;51.364;5.448;2022-10-16T04:52:38;2.17;;;1.70;;
8978;SDS011;4524;51.364;5.448;2022-10-16T04:55:06;3.07;;;1.83;;
8978;SDS011;4524;51.364;5.448;2022-10-16T04:57:34;2.83;;;1.90;;
8978;SDS011;4524;51.364;5.448;2022-10-16T05:00:02;2.80;;;1.80;;
8978;SDS011;4524;51.364;5.448;2022-10-16T05:02:32;1.80;;;1.50;;
8978;SDS011;4524;51.364;5.448;2022-10-16T05:05:00;2.73;;;1.80;;
8978;SDS011;4524;51.364;5.448;2022-10-16T05:07:28;1.83;;;1.63;;
8978;SDS011;4524;51.364;5.448;2022-10-16T05:09:55;2.87;;;1.63;;
8978;SDS011;4524;51.364;5.448;2022-10-16T05:12:24;4.13;;;2.00;;
8978;SDS011;4524;51.364;5.448;2022-10-16T05:14:52;4.67;;;1.83;;
8978;SDS011;4524;51.364;5.448;2022-10-16T05:17:24;4.10;;;1.90;;
8978;SDS011;4524;51.364;5.448;2022-10-16T05:19:54;3.57;;;1.90;;
8978;SDS011;4524;51.364;5.448;2022-10-16T05:22:22;2.00;;;1.67;;
8978;SDS011;4524;51.364;5.448;2022-10-16T05:24:50;3.20;;;1.67;;
8978;SDS011;4524;51.364;5.448;2022-10-16T05:27:18;2.67;;;1.70;;
8978;SDS011;4524;51.364;5.448;2022-10-16T05:29:46;2.30;;;1.83;;
8978;SDS011;4524;51.364;5.448;2022-10-16T05:32:15;3.17;;;2.20;;
8978;SDS011;4524;51.364;5.448;2022-10-16T05:34:44;4.07;;;2.07;;
8978;SDS011;4524;51.364;5.448;2022-10-16T05:37:14;2.13;;;1.87;;
8978;SDS011;4524;51.364;5.448;2022-10-16T05:39:41;2.53;;;2.10;;
8978;SDS011;4524;51.364;5.448;2022-10-16T05:42:11;3.47;;;2.10;;
8978;SDS011;4524;51.364;5.448;2022-10-16T05:44:39;4.23;;;1.90;;
8978;SDS011;4524;51.364;5.448;2022-10-16T05:47:07;5.67;;;2.07;;
8978;SDS011;4524;51.364;5.448;2022-10-16T05:49:34;2.83;;;2.00;;
8978;SDS011;4524;51.364;5.448;2022-10-16T05:52:06;3.43;;;2.33;;
8978;SDS011;4524;51.364;5.448;2022-10-16T05:54:35;2.33;;;2.10;;
8978;SDS011;4524;51.364;5.448;2022-10-16T05:57:03;2.90;;;1.90;;
8978;SDS011;4524;51.364;5.448;2022-10-16T05:59:31;4.63;;;2.00;;
8978;SDS011;4524;51.364;5.448;2022-10-16T06:01:59;3.53;;;2.10;;
8978;SDS011;4524;51.364;5.448;2022-10-16T06:04:27;4.37;;;2.27;;
8978;SDS011;4524;51.364;5.448;2022-10-16T06:06:57;2.83;;;1.97;;
8978;SDS011;4524;51.364;5.448;2022-10-16T06:09:26;4.00;;;2.40;;
8978;SDS011;4524;51.364;5.448;2022-10-16T06:11:55;3.50;;;2.37;;
8978;SDS011;4524;51.364;5.448;2022-10-16T06:14:23;2.83;;;2.20;;
8978;SDS011;4524;51.364;5.448;2022-10-16T06:16:51;3.33;;;2.40;;
8978;SDS011;4524;51.364;5.448;2022-10-16T06:19:19;2.30;;;2.10;;
8978;SDS011;4524;51.364;5.448;2022-10-16T06:21:47;2.93;;;2.10;;
8978;SDS011;4524;51.364;5.448;2022-10-16T06:24:15;4.30;;;2.13;;
8978;SDS011;4524;51.364;5.448;2022-10-16T06:26:42;3.77;;;2.30;;
8978;SDS011;4524;51.364;5.448;2022-10-16T06:29:12;4.00;;;2.37;;
8978;SDS011;4524;51.364;5.448;2022-10-16T06:31:40;2.53;;;2.10;;
8978;SDS011;4524;51.364;5.448;2022-10-16T06:34:08;3.80;;;2.33;;
8978;SDS011;4524;51.364;5.448;2022-10-16T06:36:37;4.93;;;2.20;;
8978;SDS011;4524;51.364;5.448;2022-10-16T06:39:05;3.93;;;2.20;;
8978;SDS011;4524;51.364;5.448;2022-10-16T06:41:34;3.17;;;2.10;;
8978;SDS011;4524;51.364;5.448;2022-10-16T06:44:15;4.07;;;2.00;;
8978;SDS011;4524;51.364;5.448;2022-10-16T06:46:43;3.37;;;2.10;;
8978;SDS011;4524;51.364;5.448;2022-10-16T06:49:10;3.63;;;2.57;;
8978;SDS011;4524;51.364;5.448;2022-10-16T06:51:38;3.87;;;2.30;;
8978;SDS011;4524;51.364;5.448;2022-10-16T06:54:09;4.77;;;2.17;;
8978;SDS011;4524;51.364;5.448;2022-10-16T06:56:36;3.73;;;2.03;;
8978;SDS011;4524;51.364;5.448;2022-10-16T06:59:04;3.23;;;2.20;;
8978;SDS011;4524;51.364;5.448;2022-10-16T07:01:34;3.03;;;2.30;;
8978;SDS011;4524;51.364;5.448;2022-10-16T07:04:01;3.83;;;2.23;;
8978;SDS011;4524;51.364;5.448;2022-10-16T07:06:30;2.93;;;2.20;;
8978;SDS011;4524;51.364;5.448;2022-10-16T07:09:00;3.00;;;2.57;;
8978;SDS011;4524;51.364;5.448;2022-10-16T07:11:30;3.27;;;2.20;;
8978;SDS011;4524;51.364;5.448;2022-10-16T07:13:58;5.00;;;2.17;;
8978;SDS011;4524;51.364;5.448;2022-10-16T07:16:26;6.27;;;2.30;;
8978;SDS011;4524;51.364;5.448;2022-10-16T07:18:57;4.37;;;2.00;;
8978;SDS011;4524;51.364;5.448;2022-10-16T07:21:27;3.53;;;2.40;;
8978;SDS011;4524;51.364;5.448;2022-10-16T07:23:56;4.13;;;2.47;;
8978;SDS011;4524;51.364;5.448;2022-10-16T07:26:26;3.33;;;2.20;;
8978;SDS011;4524;51.364;5.448;2022-10-16T07:28:56;3.60;;;2.40;;
8978;SDS011;4524;51.364;5.448;2022-10-16T07:31:24;5.87;;;2.67;;
8978;SDS011;4524;51.364;5.448;2022-10-16T07:33:53;6.93;;;2.33;;
8978;SDS011;4524;51.364;5.448;2022-10-16T07:36:22;2.67;;;2.40;;
8978;SDS011;4524;51.364;5.448;2022-10-16T07:38:50;5.30;;;2.67;;
8978;SDS011;4524;51.364;5.448;2022-10-16T07:41:23;5.23;;;2.80;;
8978;SDS011;4524;51.364;5.448;2022-10-16T07:43:52;4.07;;;2.57;;
8978;SDS011;4524;51.364;5.448;2022-10-16T07:46:21;3.10;;;2.10;;
8978;SDS011;4524;51.364;5.448;2022-10-16T07:48:50;4.80;;;2.50;;
8978;SDS011;4524;51.364;5.448;2022-10-16T07:51:18;4.30;;;2.50;;
8978;SDS011;4524;51.364;5.448;2022-10-16T07:53:50;5.73;;;2.43;;
8978;SDS011;4524;51.364;5.448;2022-10-16T07:56:19;4.13;;;2.50;;
8978;SDS011;4524;51.364;5.448;2022-10-16T07:58:48;6.03;;;2.30;;
8978;SDS011;4524;51.364;5.448;2022-10-16T08:01:17;3.57;;;2.53;;
8978;SDS011;4524;51.364;5.448;2022-10-16T08:03:46;4.37;;;2.20;;
8978;SDS011;4524;51.364;5.448;2022-10-16T08:06:16;4.07;;;2.40;;
8978;SDS011;4524;51.364;5.448;2022-10-16T08:08:51;3.50;;;2.37;;
8978;SDS011;4524;51.364;5.448;2022-10-16T08:11:19;6.13;;;2.43;;
8978;SDS011;4524;51.364;5.448;2022-10-16T08:13:47;2.57;;;2.30;;
8978;SDS011;4524;51.364;5.448;2022-10-16T08:16:15;5.00;;;2.40;;
8978;SDS011;4524;51.364;5.448;2022-10-16T08:18:43;3.97;;;2.27;;
8978;SDS011;4524;51.364;5.448;2022-10-16T08:21:12;2.90;;;2.27;;
8978;SDS011;4524;51.364;5.448;2022-10-16T08:23:47;4.73;;;2.57;;
8978;SDS011;4524;51.364;5.448;2022-10-16T08:26:25;6.47;;;2.27;;
8978;SDS011;4524;51.364;5.448;2022-10-16T08:28:53;4.07;;;2.20;;
8978;SDS011;4524;51.364;5.448;2022-10-16T08:31:22;4.90;;;2.00;;
8978;SDS011;4524;51.364;5.448;2022-10-16T08:33:50;5.27;;;1.77;;
8978;SDS011;4524;51.364;5.448;2022-10-16T08:36:18;4.10;;;1.80;;
8978;SDS011;4524;51.364;5.448;2022-10-16T08:38:47;6.10;;;2.13;;
8978;SDS011;4524;51.364;5.448;2022-10-16T08:41:37;4.13;;;2.30;;
8978;SDS011;4524;51.364;5.448;2022-10-16T08:44:41;3.07;;;1.60;;
8978;SDS011;4524;51.364;5.448;2022-10-16T08:47:26;3.50;;;1.93;;
8978;SDS011;4524;51.364;5.448;2022-10-16T08:50:02;6.23;;;1.93;;
8978;SDS011;4524;51.364;5.448;2022-10-16T08:52:38;4.17;;;1.63;;
8978;SDS011;4524;51.364;5.448;2022-10-16T08:55:09;3.60;;;1.80;;
8978;SDS011;4524;51.364;5.448;2022-10-16T08:57:51;3.87;;;1.60;;
8978;SDS011;4524;51.364;5.448;2022-10-16T09:00:19;4.33;;;1.50;;
8978;SDS011;4524;51.364;5.448;2022-10-16T09:02:49;4.13;;;1.80;;
8978;SDS011;4524;51.364;5.448;2022-10-16T09:05:23;5.77;;;2.03;;
8978;SDS011;4524;51.364;5.448;2022-10-16T09:08:11;4.70;;;1.70;;
8978;SDS011;4524;51.364;5.448;2022-10-16T09:10:48;3.60;;;1.77;;
8978;SDS011;4524;51.364;5.448;2022-10-16T09:13:26;3.87;;;1.53;;
8978;SDS011;4524;51.364;5.448;2022-10-16T09:15:59;3.80;;;1.63;;
8978;SDS011;4524;51.364;5.448;2022-10-16T09:18:38;4.50;;;1.90;;
8978;SDS011;4524;51.364;5.448;2022-10-16T09:21:14;3.77;;;1.60;;
8978;SDS011;4524;51.364;5.448;2022-10-16T09:23:45;4.93;;;1.53;;
8978;SDS011;4524;51.364;5.448;2022-10-16T09:26:14;3.50;;;1.50;;
8978;SDS011;4524;51.364;5.448;2022-10-16T09:28:46;3.83;;;1.60;;
8978;SDS011;4524;51.364;5.448;2022-10-16T09:31:18;4.70;;;1.63;;
8978;SDS011;4524;51.364;5.448;2022-10-16T09:33:48;3.43;;;1.57;;
8978;SDS011;4524;51.364;5.448;2022-10-16T09:36:20;2.20;;;1.30;;
8978;SDS011;4524;51.364;5.448;2022-10-16T09:38:49;4.43;;;1.33;;
8978;SDS011;4524;51.364;5.448;2022-10-16T09:41:17;2.47;;;1.30;;
8978;SDS011;4524;51.364;5.448;2022-10-16T09:46:43;5.00;;;1.70;;
8978;SDS011;4524;51.364;5.448;2022-10-16T09:49:19;4.17;;;1.67;;
8978;SDS011;4524;51.364;5.448;2022-10-16T09:51:49;3.20;;;1.70;;
8978;SDS011;4524;51.364;5.448;2022-10-16T09:54:18;4.40;;;1.53;;
8978;SDS011;4524;51.364;5.448;2022-10-16T09:56:47;5.37;;;1.70;;
8978;SDS011;4524;51.364;5.448;2022-10-16T09:59:19;5.50;;;1.43;;
8978;SDS011;4524;51.364;5.448;2022-10-16T10:01:50;3.73;;;1.83;;
8978;SDS011;4524;51.364;5.448;2022-10-16T10:04:20;4.40;;;1.73;;
8978;SDS011;4524;51.364;5.448;2022-10-16T10:06:50;3.27;;;1.60;;
8978;SDS011;4524;51.364;5.448;2022-10-16T10:09:21;5.63;;;1.80;;
8978;SDS011;4524;51.364;5.448;2022-10-16T10:11:51;5.10;;;1.77;;
8978;SDS011;4524;51.364;5.448;2022-10-16T10:14:23;3.63;;;1.63;;
8978;SDS011;4524;51.364;5.448;2022-10-16T10:17:02;6.33;;;1.77;;
8978;SDS011;4524;51.364;5.448;2022-10-16T10:19:38;4.80;;;1.43;;
8978;SDS011;4524;51.364;5.448;2022-10-16T10:22:13;5.50;;;1.50;;
8978;SDS011;4524;51.364;5.448;2022-10-16T10:25:01;8.77;;;1.70;;
8978;SDS011;4524;51.364;5.448;2022-10-16T10:27:48;8.10;;;1.83;;
8978;SDS011;4524;51.364;5.448;2022-10-16T10:30:29;4.77;;;1.67;;
8978;SDS011;4524;51.364;5.448;2022-10-16T10:33:12;5.43;;;1.73;;
8978;SDS011;4524;51.364;5.448;2022-10-16T10:35:50;6.00;;;1.97;;
8978;SDS011;4524;51.364;5.448;2022-10-16T10:38:28;3.13;;;1.60;;
8978;SDS011;4524;51.364;5.448;2022-10-16T10:41:07;5.50;;;1.70;;
8978;SDS011;4524;51.364;5.448;2022-10-16T10:43:59;4.90;;;1.77;;
8978;SDS011;4524;51.364;5.448;2022-10-16T10:46:35;6.17;;;1.60;;
8978;SDS011;4524;51.364;5.448;2022-10-16T10:52:22;4.60;;;1.83;;
8978;SDS011;4524;51.364;5.448;2022-10-16T10:55:09;4.90;;;1.80;;
8978;SDS011;4524;51.364;5.448;2022-10-16T10:57:42;4.70;;;1.93;;
8978;SDS011;4524;51.364;5.448;2022-10-16T11:00:26;5.13;;;1.47;;
8978;SDS011;4524;51.364;5.448;2022-10-16T11:03:13;6.57;;;1.77;;
8978;SDS011;4524;51.364;5.448;2022-10-16T11:05:50;8.87;;;2.03;;
8978;SDS011;4524;51.364;5.448;2022-10-16T11:08:22;4.83;;;1.60;;
8978;SDS011;4524;51.364;5.448;2022-10-16T11:10:57;3.20;;;1.50;;
8978;SDS011;4524;51.364;5.448;2022-10-16T11:13:29;7.47;;;1.93;;
8978;SDS011;4524;51.364;5.448;2022-10-16T11:16:01;4.60;;;1.30;;
8978;SDS011;4524;51.364;5.448;2022-10-16T11:18:38;4.07;;;1.60;;
8978;SDS011;4524;51.364;5.448;2022-10-16T11:21:13;6.23;;;1.70;;
8978;SDS011;4524;51.364;5.448;2022-10-16T11:23:46;3.87;;;1.40;;
8978;SDS011;4524;51.364;5.448;2022-10-16T11:26:19;6.87;;;2.13;;
8978;SDS011;4524;51.364;5.448;2022-10-16T11:28:51;4.20;;;1.53;;
8978;SDS011;4524;51.364;5.448;2022-10-16T11:31:24;6.47;;;1.90;;
8978;SDS011;4524;51.364;5.448;2022-10-16T11:34:01;5.50;;;1.90;;
8978;SDS011;4524;51.364;5.448;2022-10-16T11:36:35;4.77;;;1.73;;
8978;SDS011;4524;51.364;5.448;2022-10-16T11:39:14;4.67;;;1.77;;
8978;SDS011;4524;51.364;5.448;2022-10-16T11:41:47;6.23;;;1.60;;
8978;SDS011;4524;51.364;5.448;2022-10-16T11:44:31;7.07;;;1.70;;
8978;SDS011;4524;51.364;5.448;2022-10-16T11:47:12;4.07;;;1.57;;
8978;SDS011;4524;51.364;5.448;2022-10-16T11:50:13;5.20;;;1.50;;
8978;SDS011;4524;51.364;5.448;2022-10-16T11:52:49;5.23;;;1.67;;
8978;SDS011;4524;51.364;5.448;2022-10-16T11:55:23;5.50;;;1.70;;
8978;SDS011;4524;51.364;5.448;2022-10-16T11:57:57;6.20;;;1.87;;
8978;SDS011;4524;51.364;5.448;2022-10-16T12:00:31;4.87;;;1.80;;
8978;SDS011;4524;51.364;5.448;2022-10-16T12:03:08;7.60;;;1.90;;
8978;SDS011;4524;51.364;5.448;2022-10-16T12:05:52;3.50;;;1.63;;
8978;SDS011;4524;51.364;5.448;2022-10-16T12:08:29;4.40;;;1.63;;
8978;SDS011;4524;51.364;5.448;2022-10-16T12:11:06;4.60;;;1.40;;
8978;SDS011;4524;51.364;5.448;2022-10-16T12:13:35;4.63;;;1.40;;
8978;SDS011;4524;51.364;5.448;2022-10-16T12:18:49;5.33;;;1.80;;
8978;SDS011;4524;51.364;5.448;2022-10-16T12:21:31;6.07;;;2.00;;
8978;SDS011;4524;51.364;5.448;2022-10-16T12:23:59;4.30;;;1.50;;
8978;SDS011;4524;51.364;5.448;2022-10-16T12:26:29;4.03;;;1.40;;
8978;SDS011;4524;51.364;5.448;2022-10-16T12:29:10;5.93;;;2.20;;
8978;SDS011;4524;51.364;5.448;2022-10-16T12:31:43;4.60;;;1.70;;
8978;SDS011;4524;51.364;5.448;2022-10-16T12:34:23;5.00;;;1.70;;
8978;SDS011;4524;51.364;5.448;2022-10-16T12:37:07;6.23;;;1.53;;
8978;SDS011;4524;51.364;5.448;2022-10-16T12:39:37;5.17;;;1.40;;
8978;SDS011;4524;51.364;5.448;2022-10-16T12:42:06;3.60;;;1.50;;
8978;SDS011;4524;51.364;5.448;2022-10-16T12:44:49;5.13;;;1.40;;
8978;SDS011;4524;51.364;5.448;2022-10-16T12:47:22;3.17;;;1.53;;
8978;SDS011;4524;51.364;5.448;2022-10-16T12:50:02;3.93;;;1.50;;
8978;SDS011;4524;51.364;5.448;2022-10-16T12:52:39;8.23;;;2.37;;
8978;SDS011;4524;51.364;5.448;2022-10-16T12:55:13;4.73;;;1.87;;
8978;SDS011;4524;51.364;5.448;2022-10-16T12:57:46;4.33;;;1.50;;
8978;SDS011;4524;51.364;5.448;2022-10-16T13:00:32;4.47;;;1.50;;
8978;SDS011;4524;51.364;5.448;2022-10-16T13:03:19;6.33;;;1.40;;
8978;SDS011;4524;51.364;5.448;2022-10-16T13:06:01;2.83;;;1.30;;
8978;SDS011;4524;51.364;5.448;2022-10-16T13:08:46;2.57;;;1.40;;
8978;SDS011;4524;51.364;5.448;2022-10-16T13:11:32;2.67;;;1.20;;
8978;SDS011;4524;51.364;5.448;2022-10-16T13:17:05;4.03;;;1.40;;
8978;SDS011;4524;51.364;5.448;2022-10-16T13:19:41;4.07;;;1.40;;
8978;SDS011;4524;51.364;5.448;2022-10-16T13:22:17;3.03;;;1.30;;
8978;SDS011;4524;51.364;5.448;2022-10-16T13:24:57;4.10;;;1.60;;
8978;SDS011;4524;51.364;5.448;2022-10-16T13:27:39;2.87;;;1.50;;
8978;SDS011;4524;51.364;5.448;2022-10-16T13:30:15;3.63;;;1.67;;
8978;SDS011;4524;51.364;5.448;2022-10-16T13:32:45;5.00;;;1.70;;
8978;SDS011;4524;51.364;5.448;2022-10-16T13:35:19;4.50;;;1.43;;
8978;SDS011;4524;51.364;5.448;2022-10-16T13:37:48;5.20;;;1.80;;
8978;SDS011;4524;51.364;5.448;2022-10-16T13:40:22;3.03;;;1.60;;
8978;SDS011;4524;51.364;5.448;2022-10-16T13:42:51;2.97;;;1.40;;
8978;SDS011;4524;51.364;5.448;2022-10-16T13:45:22;4.40;;;1.40;;
8978;SDS011;4524;51.364;5.448;2022-10-16T13:48:00;4.90;;;1.83;;
8978;SDS011;4524;51.364;5.448;2022-10-16T13:50:29;2.93;;;1.40;;
8978;SDS011;4524;51.364;5.448;2022-10-16T13:53:04;5.67;;;1.70;;
8978;SDS011;4524;51.364;5.448;2022-10-16T13:55:34;3.57;;;1.70;;
8978;SDS011;4524;51.364;5.448;2022-10-16T13:58:05;4.20;;;1.83;;
8978;SDS011;4524;51.364;5.448;2022-10-16T14:00:35;4.97;;;1.60;;
8978;SDS011;4524;51.364;5.448;2022-10-16T14:03:04;6.10;;;1.93;;
8978;SDS011;4524;51.364;5.448;2022-10-16T14:05:34;5.63;;;1.80;;
8978;SDS011;4524;51.364;5.448;2022-10-16T14:08:02;3.83;;;1.60;;
8978;SDS011;4524;51.364;5.448;2022-10-16T14:10:31;4.47;;;1.73;;
8978;SDS011;4524;51.364;5.448;2022-10-16T14:13:01;2.87;;;1.80;;
8978;SDS011;4524;51.364;5.448;2022-10-16T14:15:30;3.73;;;1.63;;
8978;SDS011;4524;51.364;5.448;2022-10-16T14:18:00;4.13;;;1.83;;
8978;SDS011;4524;51.364;5.448;2022-10-16T14:20:28;3.53;;;1.70;;
8978;SDS011;4524;51.364;5.448;2022-10-16T14:22:59;2.57;;;1.43;;
8978;SDS011;4524;51.364;5.448;2022-10-16T14:25:30;4.30;;;1.70;;
8978;SDS011;4524;51.364;5.448;2022-10-16T14:28:04;4.77;;;1.50;;
8978;SDS011;4524;51.364;5.448;2022-10-16T14:30:48;3.07;;;1.53;;
8978;SDS011;4524;51.364;5.448;2022-10-16T14:33:21;5.03;;;1.50;;
8978;SDS011;4524;51.364;5.448;2022-10-16T14:36:01;3.10;;;1.67;;
8978;SDS011;4524;51.364;5.448;2022-10-16T14:38:31;2.00;;;1.37;;
8978;SDS011;4524;51.364;5.448;2022-10-16T14:41:00;5.33;;;1.97;;
8978;SDS011;4524;51.364;5.448;2022-10-16T14:43:31;3.53;;;1.37;;
8978;SDS011;4524;51.364;5.448;2022-10-16T14:46:01;3.13;;;1.50;;
8978;SDS011;4524;51.364;5.448;2022-10-16T14:48:30;4.27;;;1.33;;
8978;SDS011;4524;51.364;5.448;2022-10-16T14:50:59;4.40;;;1.67;;
8978;SDS011;4524;51.364;5.448;2022-10-16T14:53:26;2.97;;;1.30;;
8978;SDS011;4524;51.364;5.448;2022-10-16T14:55:54;3.70;;;1.40;;
8978;SDS011;4524;51.364;5.448;2022-10-16T15:01:12;2.77;;;1.70;;
8978;SDS011;4524;51.364;5.448;2022-10-16T15:03:40;4.47;;;1.50;;
8978;SDS011;4524;51.364;5.448;2022-10-16T15:06:09;3.40;;;1.60;;
8978;SDS011;4524;51.364;5.448;2022-10-16T15:08:38;4.53;;;1.53;;
8978;SDS011;4524;51.364;5.448;2022-10-16T15:11:07;2.73;;;1.40;;
8978;SDS011;4524;51.364;5.448;2022-10-16T15:13:38;3.57;;;1.40;;
8978;SDS011;4524;51.364;5.448;2022-10-16T15:16:08;2.57;;;1.40;;
8978;SDS011;4524;51.364;5.448;2022-10-16T15:18:39;3.23;;;1.40;;
8978;SDS011;4524;51.364;5.448;2022-10-16T15:21:07;4.03;;;1.40;;
8978;SDS011;4524;51.364;5.448;2022-10-16T15:23:36;4.00;;;1.97;;
8978;SDS011;4524;51.364;5.448;2022-10-16T15:26:04;3.60;;;1.80;;
8978;SDS011;4524;51.364;5.448;2022-10-16T15:28:32;3.93;;;1.60;;
8978;SDS011;4524;51.364;5.448;2022-10-16T15:31:01;5.10;;;1.70;;
8978;SDS011;4524;51.364;5.448;2022-10-16T15:33:33;3.80;;;1.60;;
8978;SDS011;4524;51.364;5.448;2022-10-16T15:36:05;3.47;;;1.90;;
8978;SDS011;4524;51.364;5.448;2022-10-16T15:38:33;3.00;;;1.60;;
8978;SDS011;4524;51.364;5.448;2022-10-16T15:41:01;2.53;;;1.60;;
8978;SDS011;4524;51.364;5.448;2022-10-16T15:43:29;4.87;;;1.80;;
8978;SDS011;4524;51.364;5.448;2022-10-16T15:45:58;5.03;;;1.97;;
8978;SDS011;4524;51.364;5.448;2022-10-16T15:48:30;3.20;;;1.77;;
8978;SDS011;4524;51.364;5.448;2022-10-16T15:51:00;4.57;;;1.90;;
8978;SDS011;4524;51.364;5.448;2022-10-16T15:53:32;4.90;;;2.13;;
8978;SDS011;4524;51.364;5.448;2022-10-16T15:56:01;4.97;;;1.70;;
8978;SDS011;4524;51.364;5.448;2022-10-16T15:58:29;5.70;;;2.00;;